DAL1556 KBOS-KDTW
Flight info
| Callsign | DAL1556 |
|---|---|
| Flight time | 1h 40m |
| Altitude | 36000 |
| Route | HYLND7 HYLND CAM Q822 GONZZ DONEO TPGUN2 |
| Aircraft | A321/M-SDE3FGHIRWY/LB1 |
Departure
| Time | 2026-05-04 23:21 |
|---|---|
| Airport | Boston Logan International Airport (KBOS) |
Arrival
| Time | 2026-05-05 01:02 |
|---|---|
| Airport | Detroit Metropolitan Wayne County Airport (KDTW) |
| Time | Latitude | Longitude | Altitude | Speed | Heading |
|---|---|---|---|---|---|
| 2026-05-04 22:51 | 42.36336 | -71.02120 | 30 ft | 0 kts | 17° |
| 2026-05-04 23:03 | 42.36321 | -71.02126 | 32 ft | 3 kts | 17° |
| 2026-05-04 23:03 | 42.36303 | -71.02133 | 28 ft | 3 kts | 17° |
| 2026-05-04 23:04 | 42.36285 | -71.02141 | 31 ft | 3 kts | 351° |
| 2026-05-04 23:04 | 42.36268 | -71.02129 | 29 ft | 3 kts | 288° |
| 2026-05-04 23:04 | 42.36267 | -71.02123 | 31 ft | 0 kts | 287° |
| 2026-05-04 23:07 | 42.36271 | -71.02188 | 26 ft | 11 kts | 265° |
| 2026-05-04 23:07 | 42.36234 | -71.02266 | 28 ft | 10 kts | 225° |
| 2026-05-04 23:07 | 42.36197 | -71.02337 | 29 ft | 9 kts | 212° |
| 2026-05-04 23:07 | 42.36141 | -71.02351 | 27 ft | 8 kts | 174° |
| 2026-05-04 23:08 | 42.36105 | -71.02332 | 25 ft | 0 kts | 154° |
| 2026-05-04 23:09 | 42.36099 | -71.02328 | 28 ft | 5 kts | 153° |
| 2026-05-04 23:09 | 42.36044 | -71.02275 | 27 ft | 11 kts | 131° |
| 2026-05-04 23:09 | 42.36006 | -71.02194 | 28 ft | 10 kts | 120° |
| 2026-05-04 23:10 | 42.35962 | -71.02097 | 27 ft | 17 kts | 121° |
| 2026-05-04 23:10 | 42.35900 | -71.01959 | 25 ft | 17 kts | 120° |
| 2026-05-04 23:10 | 42.35852 | -71.01820 | 29 ft | 16 kts | 105° |
| 2026-05-04 23:10 | 42.35830 | -71.01680 | 27 ft | 15 kts | 101° |
| 2026-05-04 23:11 | 42.35851 | -71.01571 | 28 ft | 12 kts | 31° |
| 2026-05-04 23:11 | 42.35927 | -71.01532 | 25 ft | 14 kts | 20° |
| 2026-05-04 23:11 | 42.36042 | -71.01476 | 25 ft | 18 kts | 20° |
| 2026-05-04 23:11 | 42.36158 | -71.01419 | 25 ft | 17 kts | 20° |
| 2026-05-04 23:12 | 42.36264 | -71.01369 | 27 ft | 16 kts | 19° |
| 2026-05-04 23:12 | 42.36366 | -71.01319 | 27 ft | 15 kts | 19° |
| 2026-05-04 23:12 | 42.36475 | -71.01266 | 28 ft | 16 kts | 19° |
| 2026-05-04 23:12 | 42.36507 | -71.01251 | 27 ft | 4 kts | 19° |
| 2026-05-04 23:13 | 42.36516 | -71.01247 | 27 ft | 1 kts | 19° |
| 2026-05-04 23:13 | 42.36559 | -71.01226 | 26 ft | 9 kts | 19° |
| 2026-05-04 23:13 | 42.36620 | -71.01197 | 27 ft | 10 kts | 19° |
| 2026-05-04 23:13 | 42.36720 | -71.01149 | 27 ft | 17 kts | 16° |
| 2026-05-04 23:14 | 42.36820 | -71.01189 | 25 ft | 15 kts | 317° |
| 2026-05-04 23:14 | 42.36903 | -71.01206 | 28 ft | 13 kts | 38° |
| 2026-05-04 23:14 | 42.36966 | -71.01132 | 28 ft | 12 kts | 37° |
| 2026-05-04 23:14 | 42.37058 | -71.01065 | 28 ft | 19 kts | 26° |
| 2026-05-04 23:15 | 42.37165 | -71.00995 | 27 ft | 15 kts | 26° |
| 2026-05-04 23:15 | 42.37229 | -71.00953 | 27 ft | 0 kts | 26° |
| 2026-05-04 23:15 | 42.37232 | -71.00951 | 27 ft | 0 kts | 26° |
| 2026-05-04 23:15 | 42.37251 | -71.00939 | 27 ft | 9 kts | 26° |
| 2026-05-04 23:16 | 42.37310 | -71.00904 | 25 ft | 9 kts | 22° |
| 2026-05-04 23:16 | 42.37367 | -71.00875 | 27 ft | 10 kts | 18° |
| 2026-05-04 23:16 | 42.37451 | -71.00836 | 26 ft | 14 kts | 20° |
| 2026-05-04 23:16 | 42.37537 | -71.00793 | 25 ft | 13 kts | 19° |
| 2026-05-04 23:17 | 42.37616 | -71.00755 | 25 ft | 12 kts | 19° |
| 2026-05-04 23:17 | 42.37692 | -71.00718 | 27 ft | 11 kts | 19° |
| 2026-05-04 23:17 | 42.37766 | -71.00683 | 27 ft | 11 kts | 20° |
| 2026-05-04 23:17 | 42.37830 | -71.00636 | 26 ft | 10 kts | 55° |
| 2026-05-04 23:18 | 42.37836 | -71.00596 | 27 ft | 0 kts | 96° |
| 2026-05-04 23:19 | 42.37829 | -71.00565 | 29 ft | 8 kts | 105° |
| 2026-05-04 23:19 | 42.37808 | -71.00498 | 29 ft | 7 kts | 128° |
| 2026-05-04 23:19 | 42.37764 | -71.00488 | 25 ft | 6 kts | 195° |
| 2026-05-04 23:19 | 42.37754 | -71.00492 | 27 ft | 0 kts | 197° |
| 2026-05-04 23:20 | 42.37750 | -71.00494 | 27 ft | 3 kts | 197° |
| 2026-05-04 23:20 | 42.37565 | -71.00583 | 30 ft | 62 kts | 199° |
| 2026-05-04 23:21 | 42.36891 | -71.00908 | 35 ft | 137 kts | 200° |
| 2026-05-04 23:21 | 42.35937 | -71.01360 | 595 ft | 149 kts | 199° |
| 2026-05-04 23:21 | 42.34936 | -71.01734 | 1349 ft | 150 kts | 195° |
| 2026-05-04 23:21 | 42.33876 | -71.01458 | 2057 ft | 174 kts | 152° |
| 2026-05-04 23:22 | 42.32971 | -71.00219 | 2354 ft | 198 kts | 137° |
| 2026-05-04 23:22 | 42.32071 | -70.98667 | 2505 ft | 222 kts | 129° |
| 2026-05-04 23:22 | 42.31462 | -70.96663 | 2911 ft | 241 kts | 105° |
| 2026-05-04 23:22 | 42.31362 | -70.94328 | 3325 ft | 262 kts | 85° |
| 2026-05-04 23:23 | 42.31730 | -70.91795 | 3661 ft | 285 kts | 79° |
| 2026-05-04 23:23 | 42.32146 | -70.89143 | 4365 ft | 291 kts | 79° |
| 2026-05-04 23:23 | 42.32558 | -70.86447 | 5158 ft | 294 kts | 78° |
| 2026-05-04 23:23 | 42.32969 | -70.83719 | 5943 ft | 298 kts | 78° |
| 2026-05-04 23:24 | 42.33382 | -70.80956 | 6693 ft | 302 kts | 77° |
| 2026-05-04 23:24 | 42.34068 | -70.78275 | 7439 ft | 302 kts | 58° |
| 2026-05-04 23:24 | 42.35308 | -70.76021 | 8188 ft | 297 kts | 39° |
| 2026-05-04 23:24 | 42.36952 | -70.74389 | 8987 ft | 290 kts | 21° |
| 2026-05-04 23:25 | 42.38816 | -70.73437 | 9791 ft | 286 kts | 11° |
| 2026-05-04 23:25 | 42.40746 | -70.72646 | 10315 ft | 297 kts | 11° |
| 2026-05-04 23:25 | 42.42819 | -70.71968 | 10454 ft | 315 kts | 2° |
| 2026-05-04 23:25 | 42.45055 | -70.71935 | 10583 ft | 330 kts | 348° |
| 2026-05-04 23:26 | 42.47321 | -70.72704 | 10791 ft | 341 kts | 334° |
| 2026-05-04 23:26 | 42.49482 | -70.74083 | 11298 ft | 346 kts | 330° |
| 2026-05-04 23:26 | 42.51629 | -70.75599 | 11885 ft | 349 kts | 324° |
| 2026-05-04 23:26 | 42.53521 | -70.77601 | 12470 ft | 350 kts | 313° |
| 2026-05-04 23:27 | 42.55090 | -70.80120 | 13070 ft | 352 kts | 302° |
| 2026-05-04 23:27 | 42.56450 | -70.82912 | 13671 ft | 356 kts | 301° |
| 2026-05-04 23:27 | 42.57820 | -70.85731 | 14223 ft | 359 kts | 301° |
| 2026-05-04 23:27 | 42.59203 | -70.88572 | 14808 ft | 362 kts | 301° |
| 2026-05-04 23:28 | 42.60614 | -70.91464 | 15379 ft | 365 kts | 301° |
| 2026-05-04 23:28 | 42.62000 | -70.94298 | 15977 ft | 366 kts | 301° |
| 2026-05-04 23:28 | 42.63412 | -70.97184 | 16567 ft | 368 kts | 301° |
| 2026-05-04 23:28 | 42.64830 | -71.00096 | 17131 ft | 370 kts | 301° |
| 2026-05-04 23:29 | 42.66249 | -71.03022 | 17688 ft | 372 kts | 301° |
| 2026-05-04 23:29 | 42.67678 | -71.05974 | 18210 ft | 375 kts | 301° |
| 2026-05-04 23:29 | 42.69113 | -71.08946 | 18687 ft | 377 kts | 301° |
| 2026-05-04 23:29 | 42.70559 | -71.11940 | 19164 ft | 379 kts | 302° |
| 2026-05-04 23:30 | 42.72016 | -71.14952 | 19630 ft | 381 kts | 302° |
| 2026-05-04 23:30 | 42.73479 | -71.17969 | 20093 ft | 383 kts | 302° |
| 2026-05-04 23:30 | 42.74950 | -71.21008 | 20557 ft | 386 kts | 302° |
| 2026-05-04 23:30 | 42.76423 | -71.24068 | 21020 ft | 387 kts | 301° |
| 2026-05-04 23:31 | 42.77665 | -71.27325 | 21460 ft | 389 kts | 291° |
| 2026-05-04 23:31 | 42.78454 | -71.30848 | 21914 ft | 392 kts | 282° |
| 2026-05-04 23:31 | 42.78886 | -71.34525 | 22363 ft | 395 kts | 279° |
| 2026-05-04 23:31 | 42.79292 | -71.38230 | 22808 ft | 397 kts | 280° |
| 2026-05-04 23:32 | 42.79704 | -71.41966 | 23246 ft | 399 kts | 280° |
| 2026-05-04 23:32 | 42.80117 | -71.45708 | 23629 ft | 402 kts | 280° |
| 2026-05-04 23:32 | 42.80535 | -71.49485 | 24008 ft | 403 kts | 280° |
| 2026-05-04 23:32 | 42.80948 | -71.53217 | 24379 ft | 405 kts | 280° |
| 2026-05-04 23:33 | 42.81373 | -71.57066 | 24765 ft | 406 kts | 280° |
| 2026-05-04 23:33 | 42.81790 | -71.60868 | 25138 ft | 407 kts | 280° |
| 2026-05-04 23:33 | 42.82204 | -71.64651 | 25511 ft | 409 kts | 281° |
| 2026-05-04 23:33 | 42.82623 | -71.68488 | 25874 ft | 410 kts | 281° |
| 2026-05-04 23:34 | 42.83044 | -71.72345 | 26231 ft | 411 kts | 281° |
| 2026-05-04 23:34 | 42.83466 | -71.76199 | 26596 ft | 413 kts | 281° |
| 2026-05-04 23:34 | 42.83888 | -71.80077 | 26946 ft | 414 kts | 281° |
| 2026-05-04 23:34 | 42.84306 | -71.83976 | 27303 ft | 416 kts | 281° |
| 2026-05-04 23:35 | 42.84722 | -71.87874 | 27643 ft | 417 kts | 281° |
| 2026-05-04 23:35 | 42.85139 | -71.91796 | 27968 ft | 419 kts | 281° |
| 2026-05-04 23:35 | 42.85556 | -71.95729 | 28342 ft | 419 kts | 281° |
| 2026-05-04 23:35 | 42.85969 | -71.99650 | 28806 ft | 417 kts | 281° |
| 2026-05-04 23:36 | 42.86383 | -72.03550 | 29262 ft | 415 kts | 281° |
| 2026-05-04 23:36 | 42.86795 | -72.07441 | 29723 ft | 413 kts | 281° |
| 2026-05-04 23:36 | 42.87064 | -72.09998 | 29972 ft | 412 kts | 281° |
| 2026-05-04 23:36 | 42.87467 | -72.13861 | 30347 ft | 411 kts | 281° |
| 2026-05-04 23:37 | 42.87996 | -72.18954 | 30848 ft | 409 kts | 282° |
| 2026-05-04 23:37 | 42.88394 | -72.22791 | 31216 ft | 408 kts | 282° |
| 2026-05-04 23:37 | 42.88793 | -72.26617 | 31572 ft | 407 kts | 282° |
| 2026-05-04 23:37 | 42.89190 | -72.30433 | 31935 ft | 406 kts | 282° |
| 2026-05-04 23:38 | 42.89454 | -72.32956 | 32171 ft | 405 kts | 282° |
| 2026-05-04 23:38 | 42.89847 | -72.36759 | 32522 ft | 405 kts | 282° |
| 2026-05-04 23:38 | 42.90235 | -72.40560 | 32872 ft | 404 kts | 282° |
| 2026-05-04 23:38 | 42.90619 | -72.44353 | 33255 ft | 403 kts | 282° |
| 2026-05-04 23:39 | 42.91002 | -72.48137 | 33615 ft | 402 kts | 283° |
| 2026-05-04 23:39 | 42.91390 | -72.51963 | 33931 ft | 402 kts | 283° |
| 2026-05-04 23:39 | 42.91773 | -72.55736 | 34202 ft | 401 kts | 282° |
| 2026-05-04 23:39 | 42.92150 | -72.59460 | 34445 ft | 402 kts | 282° |
| 2026-05-04 23:40 | 42.92528 | -72.63240 | 34694 ft | 402 kts | 282° |
| 2026-05-04 23:40 | 42.92904 | -72.67024 | 34923 ft | 403 kts | 281° |
| 2026-05-04 23:40 | 42.93281 | -72.70816 | 35153 ft | 404 kts | 281° |
| 2026-05-04 23:40 | 42.93661 | -72.74611 | 35365 ft | 405 kts | 281° |
| 2026-05-04 23:41 | 42.94040 | -72.78420 | 35582 ft | 405 kts | 281° |
| 2026-05-04 23:41 | 42.94418 | -72.82234 | 35762 ft | 406 kts | 281° |
| 2026-05-04 23:41 | 42.95167 | -72.89876 | 35818 ft | 406 kts | 281° |
| 2026-05-04 23:42 | 42.95908 | -72.97518 | 35815 ft | 406 kts | 280° |
| 2026-05-04 23:42 | 42.96649 | -73.05157 | 35811 ft | 406 kts | 280° |
| 2026-05-04 23:43 | 42.97386 | -73.12794 | 35803 ft | 405 kts | 280° |
| 2026-05-04 23:43 | 42.98119 | -73.20437 | 35799 ft | 405 kts | 280° |
| 2026-05-04 23:44 | 42.98837 | -73.28032 | 35776 ft | 406 kts | 280° |
| 2026-05-04 23:44 | 42.99473 | -73.35716 | 35790 ft | 408 kts | 275° |
| 2026-05-04 23:45 | 42.99666 | -73.43458 | 35796 ft | 408 kts | 275° |
| 2026-05-04 23:45 | 42.99853 | -73.51209 | 35795 ft | 408 kts | 275° |
| 2026-05-04 23:46 | 43.00036 | -73.58957 | 35793 ft | 408 kts | 275° |
| 2026-05-04 23:46 | 43.00220 | -73.66706 | 35787 ft | 408 kts | 275° |
| 2026-05-04 23:47 | 43.00397 | -73.74448 | 35790 ft | 407 kts | 275° |
| 2026-05-04 23:47 | 43.00564 | -73.82186 | 35792 ft | 407 kts | 275° |
| 2026-05-04 23:48 | 43.00723 | -73.89904 | 35788 ft | 406 kts | 275° |
| 2026-05-04 23:48 | 43.00877 | -73.97579 | 35793 ft | 406 kts | 275° |
| 2026-05-04 23:49 | 43.01033 | -74.05291 | 35786 ft | 406 kts | 275° |
| 2026-05-04 23:49 | 43.01180 | -74.12998 | 35787 ft | 406 kts | 275° |
| 2026-05-04 23:50 | 43.01322 | -74.20707 | 35783 ft | 405 kts | 274° |
| 2026-05-04 23:50 | 43.01481 | -74.28413 | 35782 ft | 405 kts | 276° |
| 2026-05-04 23:51 | 43.01824 | -74.36086 | 35778 ft | 404 kts | 277° |
| 2026-05-04 23:51 | 43.02225 | -74.43756 | 35782 ft | 404 kts | 276° |
| 2026-05-04 23:52 | 43.02588 | -74.51372 | 35777 ft | 404 kts | 276° |
| 2026-05-04 23:52 | 43.02920 | -74.59037 | 35781 ft | 404 kts | 276° |
| 2026-05-04 23:53 | 43.03244 | -74.66714 | 35778 ft | 405 kts | 276° |
| 2026-05-04 23:53 | 43.03564 | -74.74394 | 35785 ft | 405 kts | 276° |
| 2026-05-04 23:54 | 43.03880 | -74.82079 | 35786 ft | 405 kts | 276° |
| 2026-05-04 23:54 | 43.04197 | -74.89767 | 35785 ft | 405 kts | 276° |
| 2026-05-04 23:55 | 43.04510 | -74.97457 | 35785 ft | 405 kts | 276° |
| 2026-05-04 23:56 | 43.04963 | -75.08984 | 35779 ft | 405 kts | 275° |
| 2026-05-04 23:56 | 43.05260 | -75.16665 | 35761 ft | 404 kts | 275° |
| 2026-05-04 23:57 | 43.05546 | -75.24348 | 35765 ft | 405 kts | 275° |
| 2026-05-04 23:57 | 43.05826 | -75.32032 | 35768 ft | 404 kts | 275° |
| 2026-05-04 23:58 | 43.06052 | -75.39674 | 35769 ft | 404 kts | 275° |
| 2026-05-04 23:58 | 43.06248 | -75.47307 | 35775 ft | 405 kts | 274° |
| 2026-05-04 23:59 | 43.06452 | -75.55043 | 35774 ft | 404 kts | 274° |
| 2026-05-04 23:59 | 43.06659 | -75.62723 | 35774 ft | 404 kts | 274° |
| 2026-05-05 00:00 | 43.06862 | -75.70402 | 35767 ft | 404 kts | 274° |
| 2026-05-05 00:00 | 43.07061 | -75.78070 | 35766 ft | 403 kts | 274° |
| 2026-05-05 00:01 | 43.07247 | -75.85685 | 35763 ft | 403 kts | 274° |
| 2026-05-05 00:01 | 43.07425 | -75.93335 | 35755 ft | 402 kts | 274° |
| 2026-05-05 00:02 | 43.07599 | -76.00984 | 35753 ft | 402 kts | 274° |
| 2026-05-05 00:02 | 43.07775 | -76.08681 | 35752 ft | 402 kts | 274° |
| 2026-05-05 00:03 | 43.07945 | -76.16326 | 35751 ft | 402 kts | 274° |
| 2026-05-05 00:03 | 43.08104 | -76.23969 | 35752 ft | 402 kts | 274° |
| 2026-05-05 00:04 | 43.08259 | -76.31607 | 35753 ft | 402 kts | 274° |
| 2026-05-05 00:04 | 43.08415 | -76.39241 | 35752 ft | 401 kts | 274° |
| 2026-05-05 00:05 | 43.08557 | -76.46822 | 35748 ft | 401 kts | 274° |
| 2026-05-05 00:05 | 43.08696 | -76.54459 | 35745 ft | 401 kts | 273° |
| 2026-05-05 00:06 | 43.08834 | -76.62086 | 35741 ft | 401 kts | 273° |
| 2026-05-05 00:06 | 43.08857 | -76.69698 | 35737 ft | 402 kts | 267° |
| 2026-05-05 00:07 | 43.08203 | -76.77311 | 35735 ft | 402 kts | 266° |
| 2026-05-05 00:07 | 43.07531 | -76.84914 | 35735 ft | 402 kts | 266° |
| 2026-05-05 00:08 | 43.06862 | -76.92507 | 35719 ft | 402 kts | 266° |
| 2026-05-05 00:08 | 43.06190 | -77.00099 | 35726 ft | 402 kts | 265° |
| 2026-05-05 00:09 | 43.05507 | -77.07682 | 35728 ft | 402 kts | 265° |
| 2026-05-05 00:09 | 43.04819 | -77.15279 | 35730 ft | 402 kts | 265° |
| 2026-05-05 00:10 | 43.04124 | -77.22868 | 35745 ft | 402 kts | 265° |
| 2026-05-05 00:10 | 43.03426 | -77.30452 | 35762 ft | 402 kts | 265° |
| 2026-05-05 00:11 | 43.02729 | -77.38024 | 35749 ft | 402 kts | 265° |
| 2026-05-05 00:11 | 43.02027 | -77.45607 | 35755 ft | 402 kts | 265° |
| 2026-05-05 00:12 | 43.01322 | -77.53121 | 35734 ft | 401 kts | 265° |
| 2026-05-05 00:12 | 43.00607 | -77.60686 | 35736 ft | 401 kts | 264° |
| 2026-05-05 00:13 | 42.99894 | -77.68236 | 35731 ft | 400 kts | 265° |
| 2026-05-05 00:13 | 42.99175 | -77.75777 | 35729 ft | 400 kts | 264° |
| 2026-05-05 00:14 | 42.98440 | -77.83304 | 35725 ft | 400 kts | 264° |
| 2026-05-05 00:14 | 42.97704 | -77.90835 | 35714 ft | 400 kts | 264° |
| 2026-05-05 00:15 | 42.96970 | -77.98373 | 35721 ft | 400 kts | 264° |
| 2026-05-05 00:15 | 42.96233 | -78.05867 | 35736 ft | 401 kts | 264° |
| 2026-05-05 00:16 | 42.95486 | -78.13404 | 35731 ft | 400 kts | 264° |
| 2026-05-05 00:16 | 42.94730 | -78.20941 | 35745 ft | 400 kts | 264° |
| 2026-05-05 00:17 | 42.93972 | -78.28465 | 35727 ft | 400 kts | 264° |
| 2026-05-05 00:17 | 42.93214 | -78.35994 | 35735 ft | 400 kts | 264° |
| 2026-05-05 00:18 | 42.92450 | -78.43522 | 35721 ft | 400 kts | 264° |
| 2026-05-05 00:18 | 42.91674 | -78.51050 | 35733 ft | 400 kts | 264° |
| 2026-05-05 00:19 | 42.90893 | -78.58570 | 35731 ft | 400 kts | 264° |
| 2026-05-05 00:19 | 42.90118 | -78.66087 | 35728 ft | 401 kts | 264° |
| 2026-05-05 00:20 | 42.89329 | -78.73619 | 35727 ft | 401 kts | 264° |
| 2026-05-05 00:20 | 42.88542 | -78.81088 | 35718 ft | 400 kts | 263° |
| 2026-05-05 00:21 | 42.87743 | -78.88600 | 35696 ft | 400 kts | 264° |
| 2026-05-05 00:21 | 42.86938 | -78.96117 | 35702 ft | 401 kts | 263° |
| 2026-05-05 00:22 | 42.86131 | -79.03637 | 35695 ft | 401 kts | 263° |
| 2026-05-05 00:22 | 42.85458 | -79.09882 | 35702 ft | 401 kts | 263° |
| 2026-05-05 00:23 | 42.84640 | -79.17397 | 35701 ft | 401 kts | 263° |
| 2026-05-05 00:23 | 42.83819 | -79.24904 | 35710 ft | 400 kts | 263° |
| 2026-05-05 00:24 | 42.82992 | -79.32414 | 35706 ft | 400 kts | 263° |
| 2026-05-05 00:24 | 42.82165 | -79.39903 | 35705 ft | 400 kts | 263° |
| 2026-05-05 00:25 | 42.81337 | -79.47398 | 35703 ft | 400 kts | 263° |
| 2026-05-05 00:25 | 42.80505 | -79.54886 | 35700 ft | 400 kts | 263° |
| 2026-05-05 00:26 | 42.79653 | -79.62366 | 35706 ft | 400 kts | 263° |
| 2026-05-05 00:26 | 42.78790 | -79.69832 | 35704 ft | 399 kts | 263° |
| 2026-05-05 00:27 | 42.78002 | -79.77314 | 35701 ft | 399 kts | 264° |
| 2026-05-05 00:27 | 42.77404 | -79.84820 | 35673 ft | 399 kts | 265° |
| 2026-05-05 00:28 | 42.76832 | -79.92338 | 35679 ft | 399 kts | 265° |
| 2026-05-05 00:28 | 42.76222 | -79.99847 | 35685 ft | 399 kts | 264° |
| 2026-05-05 00:29 | 42.75577 | -80.07352 | 35695 ft | 399 kts | 264° |
| 2026-05-05 00:29 | 42.74918 | -80.14856 | 35699 ft | 399 kts | 264° |
| 2026-05-05 00:30 | 42.74264 | -80.22319 | 35701 ft | 399 kts | 264° |
| 2026-05-05 00:30 | 42.73606 | -80.29821 | 35705 ft | 399 kts | 264° |
| 2026-05-05 00:31 | 42.72954 | -80.37320 | 35703 ft | 399 kts | 265° |
| 2026-05-05 00:31 | 42.72529 | -80.44842 | 35702 ft | 399 kts | 268° |
| 2026-05-05 00:32 | 42.72278 | -80.52387 | 35703 ft | 399 kts | 268° |
| 2026-05-05 00:32 | 42.72008 | -80.59913 | 35712 ft | 399 kts | 267° |
| 2026-05-05 00:33 | 42.71683 | -80.67432 | 35713 ft | 398 kts | 267° |
| 2026-05-05 00:33 | 42.71332 | -80.74941 | 35709 ft | 398 kts | 267° |
| 2026-05-05 00:34 | 42.70989 | -80.82404 | 35703 ft | 397 kts | 267° |
| 2026-05-05 00:34 | 42.70652 | -80.89906 | 35608 ft | 398 kts | 267° |
| 2026-05-05 00:34 | 42.70475 | -80.93663 | 35355 ft | 396 kts | 267° |
| 2026-05-05 00:35 | 42.70296 | -80.97385 | 34948 ft | 395 kts | 267° |
| 2026-05-05 00:35 | 42.70116 | -81.01122 | 34244 ft | 397 kts | 267° |
| 2026-05-05 00:35 | 42.69934 | -81.04894 | 33324 ft | 403 kts | 267° |
| 2026-05-05 00:35 | 42.69751 | -81.08709 | 32391 ft | 406 kts | 267° |
| 2026-05-05 00:36 | 42.69567 | -81.12563 | 31465 ft | 410 kts | 266° |
| 2026-05-05 00:36 | 42.69383 | -81.16436 | 30604 ft | 412 kts | 266° |
| 2026-05-05 00:36 | 42.69196 | -81.20340 | 29603 ft | 417 kts | 266° |
| 2026-05-05 00:36 | 42.69131 | -81.21678 | 29194 ft | 419 kts | 266° |
| 2026-05-05 00:37 | 42.68806 | -81.28274 | 27823 ft | 416 kts | 266° |
| 2026-05-05 00:37 | 42.68609 | -81.32111 | 27677 ft | 400 kts | 266° |
| 2026-05-05 00:37 | 42.68411 | -81.35820 | 27491 ft | 386 kts | 265° |
| 2026-05-05 00:37 | 42.68157 | -81.39402 | 27212 ft | 376 kts | 264° |
| 2026-05-05 00:38 | 42.67860 | -81.42914 | 26720 ft | 372 kts | 263° |
| 2026-05-05 00:38 | 42.67542 | -81.46388 | 26181 ft | 369 kts | 263° |
| 2026-05-05 00:38 | 42.67225 | -81.49831 | 25646 ft | 366 kts | 263° |
| 2026-05-05 00:38 | 42.66916 | -81.53254 | 25112 ft | 362 kts | 263° |
| 2026-05-05 00:39 | 42.66616 | -81.56636 | 24580 ft | 359 kts | 263° |
| 2026-05-05 00:39 | 42.66323 | -81.59996 | 24056 ft | 357 kts | 263° |
| 2026-05-05 00:39 | 42.66034 | -81.63331 | 23541 ft | 354 kts | 263° |
| 2026-05-05 00:39 | 42.65747 | -81.66642 | 22979 ft | 352 kts | 263° |
| 2026-05-05 00:40 | 42.65464 | -81.69915 | 22449 ft | 347 kts | 263° |
| 2026-05-05 00:40 | 42.65188 | -81.73115 | 21958 ft | 344 kts | 263° |
| 2026-05-05 00:40 | 42.64908 | -81.76337 | 21455 ft | 341 kts | 263° |
| 2026-05-05 00:40 | 42.64626 | -81.79523 | 20958 ft | 339 kts | 263° |
| 2026-05-05 00:41 | 42.64345 | -81.82696 | 20458 ft | 337 kts | 263° |
| 2026-05-05 00:41 | 42.64066 | -81.85850 | 19969 ft | 335 kts | 263° |
| 2026-05-05 00:41 | 42.63789 | -81.88988 | 19486 ft | 334 kts | 263° |
| 2026-05-05 00:41 | 42.63513 | -81.92109 | 19000 ft | 332 kts | 263° |
| 2026-05-05 00:42 | 42.63233 | -81.95215 | 18519 ft | 331 kts | 263° |
| 2026-05-05 00:42 | 42.62953 | -81.98315 | 18030 ft | 329 kts | 262° |
| 2026-05-05 00:42 | 42.62677 | -82.01387 | 17581 ft | 327 kts | 263° |
| 2026-05-05 00:42 | 42.62401 | -82.04446 | 17310 ft | 326 kts | 263° |
| 2026-05-05 00:43 | 42.62127 | -82.07503 | 16885 ft | 324 kts | 263° |
| 2026-05-05 00:43 | 42.61855 | -82.10527 | 16418 ft | 322 kts | 263° |
| 2026-05-05 00:43 | 42.61582 | -82.13527 | 15945 ft | 319 kts | 263° |
| 2026-05-05 00:43 | 42.61313 | -82.16507 | 15484 ft | 317 kts | 263° |
| 2026-05-05 00:44 | 42.61047 | -82.19463 | 15018 ft | 314 kts | 263° |
| 2026-05-05 00:44 | 42.60778 | -82.22397 | 14565 ft | 312 kts | 263° |
| 2026-05-05 00:44 | 42.60508 | -82.25308 | 14111 ft | 310 kts | 263° |
| 2026-05-05 00:44 | 42.60239 | -82.28204 | 13660 ft | 308 kts | 263° |
| 2026-05-05 00:45 | 42.59974 | -82.31051 | 13108 ft | 309 kts | 263° |
| 2026-05-05 00:45 | 42.59703 | -82.33966 | 12659 ft | 306 kts | 263° |
| 2026-05-05 00:45 | 42.59439 | -82.36791 | 12128 ft | 306 kts | 263° |
| 2026-05-05 00:45 | 42.59173 | -82.39636 | 11661 ft | 304 kts | 263° |
| 2026-05-05 00:46 | 42.58782 | -82.42436 | 11213 ft | 301 kts | 254° |
| 2026-05-05 00:46 | 42.58010 | -82.45093 | 10716 ft | 301 kts | 248° |
| 2026-05-05 00:46 | 42.57200 | -82.47691 | 10394 ft | 294 kts | 248° |
| 2026-05-05 00:46 | 42.56421 | -82.50196 | 10269 ft | 282 kts | 248° |
| 2026-05-05 00:47 | 42.55678 | -82.52599 | 10149 ft | 270 kts | 249° |
| 2026-05-05 00:47 | 42.54962 | -82.54913 | 9940 ft | 263 kts | 248° |
| 2026-05-05 00:47 | 42.54263 | -82.57172 | 9763 ft | 260 kts | 248° |
| 2026-05-05 00:47 | 42.53566 | -82.59428 | 9409 ft | 258 kts | 248° |
| 2026-05-05 00:48 | 42.52871 | -82.61673 | 9033 ft | 257 kts | 248° |
| 2026-05-05 00:48 | 42.52186 | -82.63902 | 8688 ft | 255 kts | 248° |
| 2026-05-05 00:48 | 42.51505 | -82.66116 | 8342 ft | 254 kts | 248° |
| 2026-05-05 00:48 | 42.50824 | -82.68316 | 7995 ft | 252 kts | 248° |
| 2026-05-05 00:49 | 42.50147 | -82.70464 | 7641 ft | 251 kts | 248° |
| 2026-05-05 00:49 | 42.49442 | -82.72661 | 7284 ft | 249 kts | 248° |
| 2026-05-05 00:49 | 42.48783 | -82.74820 | 6997 ft | 246 kts | 254° |
| 2026-05-05 00:49 | 42.48577 | -82.77066 | 6953 ft | 238 kts | 272° |
| 2026-05-05 00:50 | 42.48929 | -82.79185 | 6956 ft | 225 kts | 289° |
| 2026-05-05 00:50 | 42.49618 | -82.81046 | 6955 ft | 218 kts | 287° |
| 2026-05-05 00:50 | 42.49873 | -82.83030 | 6957 ft | 212 kts | 265° |
| 2026-05-05 00:50 | 42.49762 | -82.85022 | 6959 ft | 213 kts | 264° |
| 2026-05-05 00:51 | 42.49640 | -82.87023 | 6957 ft | 213 kts | 264° |
| 2026-05-05 00:51 | 42.49514 | -82.89024 | 6981 ft | 213 kts | 264° |
| 2026-05-05 00:51 | 42.49390 | -82.91022 | 6939 ft | 215 kts | 264° |
| 2026-05-05 00:51 | 42.49260 | -82.93061 | 6565 ft | 218 kts | 264° |
| 2026-05-05 00:52 | 42.49130 | -82.95109 | 6208 ft | 219 kts | 264° |
| 2026-05-05 00:52 | 42.49004 | -82.97146 | 5990 ft | 213 kts | 264° |
| 2026-05-05 00:52 | 42.48884 | -82.99074 | 5979 ft | 197 kts | 265° |
| 2026-05-05 00:52 | 42.48890 | -83.00888 | 5979 ft | 191 kts | 270° |
| 2026-05-05 00:53 | 42.48936 | -83.02689 | 5979 ft | 191 kts | 270° |
| 2026-05-05 00:53 | 42.48989 | -83.04485 | 6007 ft | 190 kts | 270° |
| 2026-05-05 00:53 | 42.49042 | -83.06281 | 5992 ft | 190 kts | 270° |
| 2026-05-05 00:53 | 42.49046 | -83.08067 | 5968 ft | 189 kts | 260° |
| 2026-05-05 00:54 | 42.48511 | -83.09688 | 5662 ft | 193 kts | 232° |
| 2026-05-05 00:54 | 42.47567 | -83.10969 | 5335 ft | 191 kts | 229° |
| 2026-05-05 00:54 | 42.46626 | -83.12228 | 5037 ft | 188 kts | 229° |
| 2026-05-05 00:54 | 42.45717 | -83.13451 | 4979 ft | 186 kts | 229° |
| 2026-05-05 00:55 | 42.44795 | -83.14691 | 4972 ft | 187 kts | 229° |
| 2026-05-05 00:55 | 42.43872 | -83.15929 | 4982 ft | 187 kts | 229° |
| 2026-05-05 00:55 | 42.42937 | -83.17161 | 4977 ft | 190 kts | 225° |
| 2026-05-05 00:55 | 42.41831 | -83.18188 | 4820 ft | 193 kts | 219° |
| 2026-05-05 00:56 | 42.40715 | -83.19153 | 4566 ft | 186 kts | 220° |
| 2026-05-05 00:56 | 42.39682 | -83.20147 | 4321 ft | 177 kts | 219° |
| 2026-05-05 00:56 | 42.38688 | -83.20977 | 4096 ft | 159 kts | 218° |
| 2026-05-05 00:56 | 42.37786 | -83.21674 | 3991 ft | 143 kts | 217° |
| 2026-05-05 00:57 | 42.36936 | -83.22320 | 3994 ft | 140 kts | 217° |
| 2026-05-05 00:57 | 42.36088 | -83.22958 | 3990 ft | 139 kts | 217° |
| 2026-05-05 00:57 | 42.35249 | -83.23583 | 4011 ft | 137 kts | 217° |
| 2026-05-05 00:57 | 42.34408 | -83.24209 | 3928 ft | 138 kts | 217° |
| 2026-05-05 00:58 | 42.33582 | -83.24811 | 3654 ft | 131 kts | 215° |
| 2026-05-05 00:58 | 42.32757 | -83.25315 | 3187 ft | 127 kts | 214° |
| 2026-05-05 00:58 | 42.32016 | -83.25883 | 2891 ft | 119 kts | 219° |
| 2026-05-05 00:58 | 42.31294 | -83.26462 | 2729 ft | 121 kts | 217° |
| 2026-05-05 00:59 | 42.30561 | -83.27029 | 2565 ft | 122 kts | 216° |
| 2026-05-05 00:59 | 42.29834 | -83.27580 | 2407 ft | 121 kts | 216° |
| 2026-05-05 00:59 | 42.29085 | -83.28141 | 2244 ft | 121 kts | 214° |
| 2026-05-05 00:59 | 42.28354 | -83.28686 | 2084 ft | 124 kts | 214° |
| 2026-05-05 01:00 | 42.27585 | -83.29257 | 1920 ft | 126 kts | 213° |
| 2026-05-05 01:00 | 42.26818 | -83.29824 | 1748 ft | 126 kts | 212° |
| 2026-05-05 01:00 | 42.26052 | -83.30391 | 1586 ft | 125 kts | 212° |
| 2026-05-05 01:00 | 42.25235 | -83.30994 | 1415 ft | 134 kts | 211° |
| 2026-05-05 01:01 | 42.24413 | -83.31601 | 1246 ft | 133 kts | 211° |
| 2026-05-05 01:01 | 42.23593 | -83.32207 | 1052 ft | 139 kts | 209° |
| 2026-05-05 01:01 | 42.22757 | -83.32836 | 870 ft | 137 kts | 208° |
| 2026-05-05 01:01 | 42.21908 | -83.33452 | 697 ft | 139 kts | 208° |
| 2026-05-05 01:02 | 42.21113 | -83.34036 | 648 ft | 106 kts | 209° |
| 2026-05-05 01:02 | 42.20736 | -83.34317 | 647 ft | 20 kts | 215° |
| 2026-05-05 01:02 | 42.20639 | -83.34436 | 649 ft | 17 kts | 223° |
| 2026-05-05 01:02 | 42.20579 | -83.34543 | 648 ft | 13 kts | 238° |
| 2026-05-05 01:03 | 42.20555 | -83.34596 | 650 ft | 0 kts | 239° |
| 2026-05-05 01:03 | 42.20508 | -83.34700 | 649 ft | 27 kts | 238° |
| 2026-05-05 01:04 | 42.20360 | -83.34845 | 649 ft | 24 kts | 211° |
| 2026-05-05 01:04 | 42.20181 | -83.35064 | 647 ft | 11 kts | 266° |
| 2026-05-05 01:04 | 42.20177 | -83.35153 | 647 ft | 8 kts | 267° |
| 2026-05-05 01:05 | 42.20175 | -83.35209 | 648 ft | 4 kts | 267° |
| 2026-05-05 01:05 | 42.20175 | -83.35281 | 648 ft | 16 kts | 270° |
| 2026-05-05 01:05 | 42.20172 | -83.35445 | 648 ft | 17 kts | 269° |
| 2026-05-05 01:05 | 42.20170 | -83.35590 | 647 ft | 15 kts | 269° |
| 2026-05-05 01:06 | 42.20168 | -83.35718 | 646 ft | 12 kts | 269° |
| 2026-05-05 01:06 | 42.20166 | -83.35844 | 646 ft | 14 kts | 268° |
| 2026-05-05 01:06 | 42.20163 | -83.35964 | 646 ft | 12 kts | 272° |
| 2026-05-05 01:06 | 42.20193 | -83.36010 | 646 ft | 9 kts | 343° |
| 2026-05-05 01:07 | 42.20288 | -83.36001 | 646 ft | 12 kts | 22° |
| 2026-05-05 01:07 | 42.20354 | -83.35955 | 646 ft | 9 kts | 28° |
| 2026-05-05 01:07 | 42.20406 | -83.35917 | 646 ft | 8 kts | 28° |
| 2026-05-05 01:07 | 42.20447 | -83.35886 | 648 ft | 6 kts | 28° |
| 2026-05-05 01:08 | 42.20469 | -83.35871 | 647 ft | 5 kts | 28° |
| 2026-05-05 01:08 | 42.20529 | -83.35828 | 646 ft | 14 kts | 23° |
| 2026-05-05 01:08 | 42.20573 | -83.35862 | 646 ft | 0 kts | 292° |
| 2026-05-05 01:09 | 42.20577 | -83.35873 | 646 ft | 4 kts | 296° |
| 2026-05-05 01:09 | 42.20588 | -83.35899 | 647 ft | 2 kts | 299° |
| 2026-05-05 01:09 | 42.20594 | -83.35913 | 646 ft | 1 kts | 299° |
| 2026-05-05 01:09 | 42.20596 | -83.35919 | 646 ft | 0 kts | 299° |